Terminal Aerodrome Forecast
Issued by NWS

Current Version | Previous Version | Text Only | Print | Product List | Glossary On
Versions: 1 2 3 4 5 6 7 8 9 10 11 12 13 14 15 16
000
FTUS42 TJSJ 180200 AAB
TAFJSJ
TAF AMD
TJSJ 180230Z 1803/1824 09006KT P6SM FEW024 SCT040 SCT100
      TEMPO 1803/1804 5SM -SHRA SCT022 BKN040
     FM180400 09010KT P6SM VCSH SCT025 SCT050
      TEMPO 1806/1810 VRB15G22KT 4SM SHRA BKN025
     FM181430 08015KT P6SM FEW025 SCT040 SCT070
     FM182300 08012KT P6SM FEW025 SCT040 BKN070=

USA.gov is the U.S. government's official web portal to all federal, state and local government web resources and services.